Flight Track Log - Related Links

Times and Time Zones

All times are in EDT time to prevent confusion due to time zone crossing. See the FLG3318 flight status page for this flight to view local times or setup timezone preferences in your user account.

Time Position Orientation Groundspeed Altitude Reporting Facility
EDT Latitude Longitude Course Direction KTS MPH feet Rate Location/Type
Sun 03:32:45 PM 40.6167 -73.8000 27° Northeast 159 183 1,500  Level New York TRACON
Sun 03:33:45 PM 40.5833 -73.7833 159° South 208 239 3,600 2,150 Climbing New York TRACON
Sun 03:34:45 PM 40.6000 -73.6833 78° East 276 318 5,800 2,474 Climbing New York TRACON
Sun 03:35:00 PM 40.8806 -73.6348 21° North  Level FlightAware Approximate
Sun 03:35:39 PM 40.6167 -73.6000 75° East 291 335 8,300  Level New York TRACON
Sun 03:36:00 PM 40.9684 -73.5909 21° North  Level FlightAware Approximate
Sun 03:36:39 PM 40.7000 -73.5500 24° Northeast 312 359 10,900  Level New York TRACON
Sun 03:37:00 PM 41.0544 -73.5415 27° Northeast  Level FlightAware Approximate
Sun 03:37:39 PM 40.7833 -73.5000 24° Northeast 392 451 11,100  Level New York TRACON
Sun 03:38:00 PM 41.1407 -73.4840 27° Northeast  Level FlightAware Approximate
Sun 03:39:59 PM 41.0394 -73.4336 11° North 404 465 17,100  Level Boston Center
Sun 03:40:59 PM 41.1394 -73.4075 11° North 390 449 18,600 1,400 Climbing Boston Center
Sun 03:41:59 PM 41.2669 -73.3872 North 400 460 19,900 700 Climbing Boston Center
Sun 03:42:59 PM 41.3856 -73.3864 360° North 413 475 20,000 50 Climbing Boston Center
Sun 03:44:00 PM 41.5086 -73.3825 North 425 489 20,000  Level Boston Center
Sun 03:45:00 PM 41.6253 -73.3817 360° North 425 489 20,000  Level Boston Center
Sun 03:45:58 PM 41.7483 -73.3778 North 425 489 20,000  Level Boston Center
Sun 03:46:59 PM 41.8672 -73.3767 360° North 425 489 20,000  Level Boston Center
Sun 03:47:59 PM 41.9881 -73.3731 North 420 483 20,000  Level Boston Center
Sun 03:48:59 PM 42.1089 -73.3692 North 425 489 20,000 694 Level Boston Center
Sun 03:50:00 PM 42.2300 -73.3625 North 425 489 21,400 1,000 Climbing Boston Center
Sun 03:50:59 PM 42.3508 -73.3644 359° North 425 489 22,000 303 Climbing Boston Center
Sun 03:51:59 PM 42.4756 -73.3886 352° North 430 495 22,000  Level Boston Center
Sun 03:53:00 PM 42.5308 -73.5219 299° West 387 445 22,000  Level Boston Center
Sun 03:53:58 PM 42.5542 -73.6689 282° West 372 428 22,000  Level Boston Center
Sun 03:54:58 PM 42.5775 -73.8161 282° West 381 438 22,000  Level Boston Center
Sun 03:55:59 PM 42.6008 -73.9603 282° West 392 451 22,000  Level Boston Center
Sun 03:56:58 PM 42.6214 -74.1161 280° West 399 459 22,000  Level Boston Center
Sun 03:58:00 PM 42.6362 -74.2561 278° West  Level FlightAware Approximate
Sun 03:58:59 PM 42.6689 -74.4111 278° West 410 472 22,000  Level Boston Center
Sun 04:00:00 PM 42.6933 -74.5586 283° West 410 472 22,000  Level Boston Center
Sun 04:01:00 PM 42.7131 -74.7150 280° West 415 478 22,000  Level Boston Center
Sun 04:02:00 PM 42.7372 -74.8656 282° West 410 472 22,000  Level Boston Center
Sun 04:02:58 PM 42.7589 -75.0106 282° West 410 472 22,000  Level Boston Center
Sun 04:03:59 PM 42.7806 -75.1586 281° West 405 466 22,000  Level Boston Center
Sun 04:05:00 PM 42.8019 -75.3069 281° West 405 466 22,000  Level Boston Center
Sun 04:06:00 PM 42.8231 -75.4578 281° West 405 466 22,000  Level Boston Center
Sun 04:07:00 PM 42.8461 -75.6092 282° West 405 466 22,000  Level Boston Center
Sun 04:07:58 PM 42.8669 -75.7547 281° West 405 466 22,000  Level Boston Center
Sun 04:09:00 PM 42.8897 -75.9033 282° West 405 466 22,000  Level Boston Center
Sun 04:10:00 PM 42.9081 -76.0489 280° West 398 458 22,000  Level Boston Center
Sun 04:11:00 PM 42.9283 -76.1978 281° West 398 458 22,000  Level Boston Center
Sun 04:13:09 PM 42.9678 -76.5056 280° West 409 471 22,000  Level Cleveland Center
Sun 04:14:09 PM 42.9897 -76.6575 281° West 409 471 22,000  Level Cleveland Center
Sun 04:15:09 PM 43.0094 -76.8094 280° West 409 471 22,000  Level Cleveland Center
Sun 04:16:09 PM 43.0267 -76.9564 279° West 409 471 22,000  Level Cleveland Center
Sun 04:17:09 PM 43.0478 -77.1028 281° West 409 471 22,000 -700 Level Cleveland Center
Sun 04:18:09 PM 43.0644 -77.2469 279° West 409 471 20,600 -1,600 Descending Cleveland Center
Sun 04:19:09 PM 43.0833 -77.3936 280° West 404 465 18,800 -2,050 Descending Cleveland Center
Sun 04:20:09 PM 43.0972 -77.5294 278° West 391 450 16,500 -2,100 Descending Cleveland Center
Sun 04:21:09 PM 43.1050 -77.6628 275° West 367 422 14,600 -2,000 Descending Cleveland Center
Sun 04:22:09 PM 43.1122 -77.7933 274° West 356 410 12,500 -1,800 Descending Cleveland Center
Sun 04:23:09 PM 43.1172 -77.9183 273° West 344 396 11,000 -750 Descending Cleveland Center
Sun 04:24:09 PM 43.1100 -78.0581 266° West 339 390 11,000 -350 Level Cleveland Center
Sun 04:25:09 PM 43.0958 -78.1722 260° West 329 379 10,300 -900 Descending Cleveland Center
Sun 04:26:09 PM 43.0875 -78.2719 264° West 301 346 9,200 -1,000 Descending Cleveland Center
Sun 04:27:09 PM 43.0828 -78.3603 266° West 266 306 8,300 -1,350 Descending Cleveland Center
Sun 04:28:09 PM 43.0758 -78.4344 263° West 228 262 6,500 -1,850 Descending Cleveland Center
Sun 04:29:09 PM 43.0625 -78.5031 255° West 201 231 4,600 -1,750 Descending Cleveland Center
Sun 04:30:09 PM 43.0472 -78.5747 254° West 207 238 3,000 -1,150 Descending Cleveland Center
Sun 04:31:09 PM 43.0189 -78.6325 236° Southwest 181 208 2,300 -490 Descending Cleveland Center
Sun 04:31:47 PM 43.0000 -78.6500 214° Southwest 139 160 2,200 -490 Descending Buffalo TRACON
Sun 04:32:47 PM 42.9667 -78.6833 216° Southwest 122 140 1,500 -700 Descending Buffalo TRACON

Login

Don't have an account? Register now (free) for customized features, flight alerts, and more!